Portada
METAR-TAF:

METAR-TAF

Aeropuertos :

Ibiza, España

Aeropuerto de Ibiza

latitud: 38-52N, longitud: 001-23E, altitud: 7 m

Observación

El informe se hizo hace 39 minutos, a las 16:00 UTC
Viento 8 kt del sur-suroeste
Temperatura 24°C
Humedad 65%
Presión 1019 hPa
Visibilidad 10 km o más
Escasas nubes a una altura de 3500 ft

METAR: LEIB 201600Z 21008KT 9999 FEW035 24/17 Q1019 NOSIG

Hora: 18:39 (16:39 UTC)

Pronóstico

El informe se hizo hace 2 horas y 39 minutos, a las 14:00 UTC
Pronóstico válido del 20 a las 15 UTC al 21 a las 15 UTC
Viento 8 kt del sur-suroeste
Visibilidad 10 km o más
Escasas nubes a una altura de 2500 ft
Temporalmente
del 20 a las 19 UTC al 21 a las 14 UTC
Viento 6 kt del sur-sureste

TAF: LEIB 201400Z 2015/2115 20008KT 9999 FEW025 TX26/2112Z TN18/2106Z TEMPO 2019/2114 15006KT

Observaciones y pronósticos meteorológicos de más de 4000 aeropuertos (mensajes METAR y TAF).

Los puntos amarillos y rojos representan las estaciones disponibles.

Ponga el ratón en el punto deseado para ver el nombre de la estación.

Haga clic para ver las observaciones y los pronósticos meteorológicos.

Para cambiar el mapa : haga clic en los botones verdes con una cruz de color negro para hacer un zoom, en el botón verde con un guión para alejar o en las flechas verdes para mapas adyacentes.


METAR-TAF: